createdAt,value
2017-04-30T17:51:00.691Z,3.62
2017-04-30T17:53:27.651Z,3.38
2017-04-30T17:55:54.643Z,3.82
2017-04-30T17:58:21.626Z,3.50
2017-04-30T18:00:48.642Z,3.34
2017-04-30T18:03:15.736Z,4.02
2017-04-30T18:05:42.955Z,3.30
2017-04-30T18:08:09.903Z,4.76
2017-04-30T18:10:36.893Z,3.58
2017-04-30T18:13:03.881Z,3.68
2017-04-30T18:15:30.847Z,3.32
2017-04-30T18:17:57.858Z,3.16
2017-04-30T18:20:25.550Z,5.74
2017-04-30T18:22:52.577Z,5.92
2017-04-30T18:25:21.217Z,3.16
2017-04-30T18:27:48.175Z,3.50
2017-04-30T18:30:15.630Z,3.40
2017-04-30T18:32:42.597Z,3.38
2017-04-30T18:35:10.331Z,3.14
2017-04-30T18:37:37.739Z,3.56
2017-04-30T18:40:04.722Z,4.24
2017-04-30T18:42:31.753Z,3.58
2017-04-30T18:44:58.760Z,3.46
2017-04-30T18:47:26.473Z,4.28
2017-04-30T18:49:53.432Z,4.18
2017-04-30T18:52:20.423Z,5.68
2017-04-30T18:54:48.131Z,5.62
2017-04-30T18:57:15.188Z,3.56
2017-04-30T18:59:42.217Z,4.20
2017-04-30T19:02:09.655Z,4.58
2017-04-30T19:04:36.675Z,4.48
2017-04-30T19:09:58.969Z,3.56
2017-04-30T19:19:13.324Z,6.44
2017-04-30T19:21:41.971Z,7.58
2017-04-30T19:24:09.844Z,9.22
2017-04-30T19:26:36.831Z,9.04
2017-04-30T19:29:04.566Z,7.78
2017-04-30T19:31:32.745Z,6.34
2017-04-30T19:34:00.360Z,6.40
2017-04-30T19:36:27.994Z,8.80
2017-04-30T19:38:56.307Z,5.30
2017-04-30T19:41:23.378Z,5.26
2017-04-30T19:43:51.451Z,3.84
2017-04-30T19:46:18.412Z,4.76
2017-04-30T19:48:45.367Z,5.24
2017-04-30T19:51:12.379Z,4.34
2017-04-30T19:53:39.395Z,4.04
2017-04-30T19:56:06.397Z,3.86
2017-04-30T19:58:33.414Z,4.00
2017-04-30T20:01:00.380Z,4.30
2017-04-30T20:03:27.384Z,4.04
2017-04-30T20:05:54.371Z,4.04
2017-04-30T20:08:21.345Z,4.80
2017-04-30T20:10:49.632Z,4.66
2017-04-30T20:13:17.416Z,4.32
2017-04-30T20:15:44.419Z,5.34
2017-04-30T20:18:12.444Z,6.40
2017-04-30T20:20:39.432Z,5.20
2017-04-30T20:23:06.441Z,5.82
2017-04-30T20:25:33.507Z,5.46
2017-04-30T20:28:00.500Z,6.96
2017-04-30T20:30:28.847Z,9.78
2017-04-30T20:32:56.165Z,6.04
2017-04-30T20:35:23.152Z,7.54
2017-04-30T20:37:50.163Z,8.06
2017-04-30T20:40:17.191Z,8.82
2017-04-30T20:42:44.193Z,6.46
2017-04-30T20:45:11.325Z,7.60
2017-04-30T20:47:38.312Z,9.42
2017-04-30T20:50:06.047Z,8.48
2017-04-30T20:52:33.087Z,10.88
2017-04-30T20:55:00.076Z,7.86
2017-04-30T20:57:27.045Z,7.70
2017-04-30T20:59:54.027Z,7.52
2017-04-30T21:02:21.011Z,8.12
2017-04-30T21:04:48.772Z,7.74
2017-04-30T21:07:16.501Z,12.36
2017-04-30T21:09:43.487Z,8.72
2017-04-30T21:12:10.491Z,7.24
2017-04-30T21:14:37.497Z,8.32
2017-04-30T21:17:04.496Z,8.70
2017-04-30T21:19:31.509Z,9.66
2017-04-30T21:21:58.507Z,9.22
2017-04-30T21:24:26.344Z,7.74
2017-04-30T21:26:53.311Z,8.02
2017-04-30T21:29:20.283Z,9.36
2017-04-30T21:31:47.256Z,8.64
2017-04-30T21:34:14.182Z,9.86
2017-04-30T21:36:41.273Z,8.30
2017-04-30T21:39:08.270Z,8.72
2017-04-30T21:41:35.235Z,8.54
2017-04-30T21:44:02.286Z,9.48
2017-04-30T21:46:29.260Z,9.24
2017-04-30T21:48:56.248Z,9.08
2017-04-30T21:51:23.965Z,8.38
2017-04-30T21:53:50.972Z,8.92
2017-04-30T21:56:17.981Z,9.60
2017-04-30T21:58:44.999Z,8.96
2017-04-30T22:01:11.977Z,10.08
2017-04-30T22:03:38.968Z,9.92
2017-04-30T22:06:05.931Z,10.86
2017-04-30T22:08:32.918Z,11.22
2017-04-30T22:10:59.924Z,10.96
2017-04-30T22:13:26.972Z,10.72
2017-04-30T22:15:53.951Z,9.22
2017-04-30T22:18:20.936Z,9.54
2017-04-30T22:20:47.958Z,10.14
2017-04-30T22:23:15.692Z,11.06
2017-04-30T22:25:42.646Z,10.48
2017-04-30T22:28:09.667Z,10.90
2017-04-30T22:30:36.685Z,9.64
2017-04-30T22:33:03.722Z,10.50
2017-04-30T22:35:31.471Z,9.92
2017-04-30T22:37:58.476Z,14.00
2017-04-30T22:40:25.466Z,11.04
2017-04-30T22:42:53.184Z,10.28
2017-04-30T22:45:20.200Z,12.08
2017-04-30T22:47:47.196Z,10.80
2017-04-30T22:50:14.230Z,11.06
2017-04-30T22:52:41.253Z,10.78
2017-04-30T22:55:08.334Z,10.12
2017-04-30T22:57:35.313Z,11.02
2017-04-30T23:00:03.068Z,11.68
2017-04-30T23:02:30.042Z,10.68
2017-04-30T23:04:57.032Z,10.54
2017-04-30T23:07:24.016Z,10.46
2017-04-30T23:09:51.016Z,10.98
2017-04-30T23:12:18.080Z,11.06
2017-04-30T23:14:45.055Z,10.96
2017-04-30T23:17:12.772Z,11.80
2017-04-30T23:19:39.731Z,11.00
2017-04-30T23:22:06.720Z,12.34
2017-04-30T23:24:34.530Z,12.54
2017-04-30T23:27:01.491Z,11.36
2017-04-30T23:29:28.483Z,11.28
2017-04-30T23:31:56.232Z,12.40
2017-04-30T23:34:23.924Z,10.80
2017-04-30T23:36:50.914Z,10.88
2017-04-30T23:39:17.893Z,13.38
2017-04-30T23:41:45.662Z,11.50
2017-04-30T23:44:13.401Z,12.46
2017-04-30T23:46:40.396Z,12.50
2017-04-30T23:49:07.391Z,12.32
2017-04-30T23:51:34.394Z,12.28
2017-04-30T23:54:01.380Z,12.10
2017-04-30T23:56:28.359Z,12.62
2017-04-30T23:58:56.076Z,14.14
